sensor_id;sensor_type;location;lat;lon;timestamp;pressure;altitude;pressure_sealevel;temperature;humidity
33554;BME280;19885;42.208;24.952;2022-11-11T00:00:48;101022.28;;;7.64;79.85
33554;BME280;19885;42.208;24.952;2022-11-11T00:03:14;101015.94;;;7.56;79.52
33554;BME280;19885;42.208;24.952;2022-11-11T00:05:40;100955.16;;;7.26;80.51
33554;BME280;19885;42.208;24.952;2022-11-11T00:08:06;101017.06;;;7.63;81.17
33554;BME280;19885;42.208;24.952;2022-11-11T00:10:31;101011.00;;;7.64;81.05
33554;BME280;19885;42.208;24.952;2022-11-11T00:13:00;101016.28;;;7.65;81.25
33554;BME280;19885;42.208;24.952;2022-11-11T00:15:29;101009.28;;;7.63;80.60
33554;BME280;19885;42.208;24.952;2022-11-11T00:17:55;101019.53;;;7.60;79.86
33554;BME280;19885;42.208;24.952;2022-11-11T00:20:39;101002.50;;;7.44;79.22
33554;BME280;19885;42.208;24.952;2022-11-11T00:23:25;101018.13;;;7.46;79.44
33554;BME280;19885;42.208;24.952;2022-11-11T00:26:11;101023.38;;;7.47;80.54
33554;BME280;19885;42.208;24.952;2022-11-11T00:28:37;101008.59;;;7.45;80.57
33554;BME280;19885;42.208;24.952;2022-11-11T00:31:04;101017.13;;;7.42;79.85
33554;BME280;19885;42.208;24.952;2022-11-11T00:33:30;101005.47;;;7.31;80.18
33554;BME280;19885;42.208;24.952;2022-11-11T00:35:56;101021.31;;;7.39;79.32
33554;BME280;19885;42.208;24.952;2022-11-11T00:38:21;101020.31;;;7.35;79.44
33554;BME280;19885;42.208;24.952;2022-11-11T00:41:05;101026.22;;;7.31;80.47
33554;BME280;19885;42.208;24.952;2022-11-11T00:43:31;101020.38;;;7.37;80.36
33554;BME280;19885;42.208;24.952;2022-11-11T00:45:56;100951.69;;;7.03;80.32
33554;BME280;19885;42.208;24.952;2022-11-11T00:48:42;101006.50;;;7.36;79.98
33554;BME280;19885;42.208;24.952;2022-11-11T00:51:26;101004.88;;;7.38;80.55
33554;BME280;19885;42.208;24.952;2022-11-11T00:53:52;101005.88;;;7.42;81.98
33554;BME280;19885;42.208;24.952;2022-11-11T00:56:18;100998.72;;;7.36;80.89
33554;BME280;19885;42.208;24.952;2022-11-11T00:58:43;100996.22;;;7.38;80.22
33554;BME280;19885;42.208;24.952;2022-11-11T01:01:09;101002.34;;;7.40;81.33
33554;BME280;19885;42.208;24.952;2022-11-11T01:03:34;101003.28;;;7.42;80.54
33554;BME280;19885;42.208;24.952;2022-11-11T01:06:01;100998.91;;;7.41;80.84
33554;BME280;19885;42.208;24.952;2022-11-11T01:08:27;100982.19;;;7.33;79.87
33554;BME280;19885;42.208;24.952;2022-11-11T01:10:52;100969.00;;;7.27;78.97
33554;BME280;19885;42.208;24.952;2022-11-11T01:13:21;100974.38;;;7.31;79.65
33554;BME280;19885;42.208;24.952;2022-11-11T01:15:49;100977.13;;;7.36;79.82
33554;BME280;19885;42.208;24.952;2022-11-11T01:18:21;100977.00;;;7.33;80.17
33554;BME280;19885;42.208;24.952;2022-11-11T01:20:47;100984.66;;;7.30;79.13
33554;BME280;19885;42.208;24.952;2022-11-11T01:23:21;100958.97;;;7.13;80.55
33554;BME280;19885;42.208;24.952;2022-11-11T01:25:47;100966.00;;;7.16;80.96
33554;BME280;19885;42.208;24.952;2022-11-11T01:28:13;100972.28;;;7.22;82.38
33554;BME280;19885;42.208;24.952;2022-11-11T01:30:39;100982.81;;;7.27;82.39
33554;BME280;19885;42.208;24.952;2022-11-11T01:33:04;100980.81;;;7.20;82.20
33554;BME280;19885;42.208;24.952;2022-11-11T01:35:30;100979.97;;;7.19;82.03
33554;BME280;19885;42.208;24.952;2022-11-11T01:37:56;100989.50;;;7.20;82.16
33554;BME280;19885;42.208;24.952;2022-11-11T01:40:22;100983.38;;;7.18;81.73
33554;BME280;19885;42.208;24.952;2022-11-11T01:45:57;100966.06;;;7.17;83.00
33554;BME280;19885;42.208;24.952;2022-11-11T01:48:37;100978.06;;;7.15;81.66
33554;BME280;19885;42.208;24.952;2022-11-11T01:51:33;100977.03;;;7.10;81.73
33554;BME280;19885;42.208;24.952;2022-11-11T01:54:04;100971.19;;;6.94;81.48
33554;BME280;19885;42.208;24.952;2022-11-11T01:56:31;100980.91;;;6.99;82.00
33554;BME280;19885;42.208;24.952;2022-11-11T01:59:02;100969.31;;;6.90;81.95
33554;BME280;19885;42.208;24.952;2022-11-11T02:01:29;100980.44;;;6.87;81.41
33554;BME280;19885;42.208;24.952;2022-11-11T02:03:55;100978.91;;;6.92;82.24
33554;BME280;19885;42.208;24.952;2022-11-11T02:06:41;100985.59;;;6.87;82.13
33554;BME280;19885;42.208;24.952;2022-11-11T02:09:07;100981.06;;;6.82;81.40
33554;BME280;19885;42.208;24.952;2022-11-11T02:11:33;100997.72;;;6.88;81.10
33554;BME280;19885;42.208;24.952;2022-11-11T02:14:18;100987.00;;;6.79;80.96
33554;BME280;19885;42.208;24.952;2022-11-11T02:17:08;100989.66;;;6.81;81.30
33554;BME280;19885;42.208;24.952;2022-11-11T02:19:43;100989.59;;;6.79;81.85
33554;BME280;19885;42.208;24.952;2022-11-11T02:22:13;100989.41;;;6.75;80.33
33554;BME280;19885;42.208;24.952;2022-11-11T02:24:41;101001.94;;;6.64;79.97
33554;BME280;19885;42.208;24.952;2022-11-11T02:27:09;100989.63;;;6.59;80.68
33554;BME280;19885;42.208;24.952;2022-11-11T02:29:36;100995.69;;;6.59;80.84
33554;BME280;19885;42.208;24.952;2022-11-11T02:32:03;100997.31;;;6.57;81.18
33554;BME280;19885;42.208;24.952;2022-11-11T02:34:32;100997.78;;;6.47;79.99
33554;BME280;19885;42.208;24.952;2022-11-11T02:36:58;100996.91;;;6.46;80.81
33554;BME280;19885;42.208;24.952;2022-11-11T02:39:26;100989.31;;;6.51;80.77
33554;BME280;19885;42.208;24.952;2022-11-11T02:41:51;100988.19;;;6.44;80.85
33554;BME280;19885;42.208;24.952;2022-11-11T02:44:24;100979.31;;;5.98;83.10
33554;BME280;19885;42.208;24.952;2022-11-11T02:46:50;100986.47;;;6.24;82.03
33554;BME280;19885;42.208;24.952;2022-11-11T02:49:16;100914.06;;;5.85;81.55
33554;BME280;19885;42.208;24.952;2022-11-11T02:51:41;100923.28;;;5.99;81.59
33554;BME280;19885;42.208;24.952;2022-11-11T02:54:07;100987.66;;;6.32;80.81
33554;BME280;19885;42.208;24.952;2022-11-11T02:56:32;100961.91;;;6.15;79.99
33554;BME280;19885;42.208;24.952;2022-11-11T02:59:16;100922.44;;;6.00;80.11
33554;BME280;19885;42.208;24.952;2022-11-11T03:01:41;100988.50;;;6.11;80.62
33554;BME280;19885;42.208;24.952;2022-11-11T03:04:07;100927.94;;;5.87;79.99
33554;BME280;19885;42.208;24.952;2022-11-11T03:06:32;100985.72;;;6.06;80.85
33554;BME280;19885;42.208;24.952;2022-11-11T03:08:58;100991.19;;;6.14;80.81
33554;BME280;19885;42.208;24.952;2022-11-11T03:11:23;100986.16;;;6.17;80.89
33554;BME280;19885;42.208;24.952;2022-11-11T03:13:56;100987.78;;;6.15;81.27
33554;BME280;19885;42.208;24.952;2022-11-11T03:16:21;100992.97;;;6.15;81.62
33554;BME280;19885;42.208;24.952;2022-11-11T03:19:05;100929.00;;;5.52;81.97
33554;BME280;19885;42.208;24.952;2022-11-11T03:21:31;100985.63;;;6.05;81.70
33554;BME280;19885;42.208;24.952;2022-11-11T03:23:56;101000.97;;;6.21;82.49
33554;BME280;19885;42.208;24.952;2022-11-11T03:26:22;100986.00;;;6.14;81.86
33554;BME280;19885;42.208;24.952;2022-11-11T03:28:47;100985.13;;;6.13;81.44
33554;BME280;19885;42.208;24.952;2022-11-11T03:31:14;100994.84;;;6.19;81.08
33554;BME280;19885;42.208;24.952;2022-11-11T03:33:39;100977.16;;;6.09;81.11
33554;BME280;19885;42.208;24.952;2022-11-11T03:36:04;100980.44;;;6.05;81.81
33554;BME280;19885;42.208;24.952;2022-11-11T03:38:30;100917.81;;;5.72;81.02
33554;BME280;19885;42.208;24.952;2022-11-11T03:40:57;100994.63;;;6.13;82.05
33554;BME280;19885;42.208;24.952;2022-11-11T03:43:24;100999.09;;;6.17;82.34
33554;BME280;19885;42.208;24.952;2022-11-11T03:45:51;100997.00;;;6.08;82.02
33554;BME280;19885;42.208;24.952;2022-11-11T03:48:17;100993.78;;;6.14;82.15
33554;BME280;19885;42.208;24.952;2022-11-11T03:50:42;100934.66;;;5.83;81.97
33554;BME280;19885;42.208;24.952;2022-11-11T03:53:08;100988.91;;;6.01;81.49
33554;BME280;19885;42.208;24.952;2022-11-11T03:55:34;100981.72;;;6.14;82.69
33554;BME280;19885;42.208;24.952;2022-11-11T03:57:59;100997.41;;;6.17;82.85
33554;BME280;19885;42.208;24.952;2022-11-11T04:00:27;100990.75;;;6.24;82.81
33554;BME280;19885;42.208;24.952;2022-11-11T04:03:09;100998.53;;;6.24;82.30
33554;BME280;19885;42.208;24.952;2022-11-11T04:05:53;100998.59;;;6.25;82.63
33554;BME280;19885;42.208;24.952;2022-11-11T04:08:37;100987.03;;;6.17;81.86
33554;BME280;19885;42.208;24.952;2022-11-11T04:11:40;100991.19;;;6.14;81.56
33554;BME280;19885;42.208;24.952;2022-11-11T04:14:09;100998.16;;;6.15;81.59
33554;BME280;19885;42.208;24.952;2022-11-11T04:16:53;101006.59;;;6.11;81.59
33554;BME280;19885;42.208;24.952;2022-11-11T04:19:18;101001.69;;;5.59;81.69
33554;BME280;19885;42.208;24.952;2022-11-11T04:22:03;101003.41;;;5.78;81.76
33554;BME280;19885;42.208;24.952;2022-11-11T04:24:28;101019.56;;;5.55;83.40
33554;BME280;19885;42.208;24.952;2022-11-11T04:27:14;101010.41;;;5.42;83.10
33554;BME280;19885;42.208;24.952;2022-11-11T04:29:40;100999.25;;;5.62;83.02
33554;BME280;19885;42.208;24.952;2022-11-11T04:32:10;101015.44;;;5.77;82.29
33554;BME280;19885;42.208;24.952;2022-11-11T04:35:04;101021.25;;;5.91;81.12
33554;BME280;19885;42.208;24.952;2022-11-11T04:37:43;101027.84;;;5.65;80.85
33554;BME280;19885;42.208;24.952;2022-11-11T04:40:10;101017.63;;;5.49;80.98
33554;BME280;19885;42.208;24.952;2022-11-11T04:42:54;101017.63;;;5.49;81.04
33554;BME280;19885;42.208;24.952;2022-11-11T04:45:19;101016.63;;;5.28;81.05
33554;BME280;19885;42.208;24.952;2022-11-11T04:53:00;101027.00;;;5.47;80.32
33554;BME280;19885;42.208;24.952;2022-11-11T04:55:27;101028.69;;;5.47;81.20
33554;BME280;19885;42.208;24.952;2022-11-11T04:58:13;101018.84;;;5.38;80.66
33554;BME280;19885;42.208;24.952;2022-11-11T05:00:39;101020.53;;;5.38;81.95
33554;BME280;19885;42.208;24.952;2022-11-11T05:03:04;101025.50;;;5.33;82.60
33554;BME280;19885;42.208;24.952;2022-11-11T05:05:53;101007.94;;;5.26;82.31
33554;BME280;19885;42.208;24.952;2022-11-11T05:08:45;101027.34;;;5.36;82.37
33554;BME280;19885;42.208;24.952;2022-11-11T05:11:30;101043.16;;;5.43;82.53
33554;BME280;19885;42.208;24.952;2022-11-11T05:14:04;101039.09;;;5.48;82.97
33554;BME280;19885;42.208;24.952;2022-11-11T05:16:58;101029.28;;;5.22;83.11
33554;BME280;19885;42.208;24.952;2022-11-11T05:19:42;101004.50;;;5.27;83.28
33554;BME280;19885;42.208;24.952;2022-11-11T05:22:38;101027.00;;;5.47;82.50
33554;BME280;19885;42.208;24.952;2022-11-11T05:25:05;101027.97;;;5.49;82.58
33554;BME280;19885;42.208;24.952;2022-11-11T05:27:57;101025.22;;;5.46;82.74
33554;BME280;19885;42.208;24.952;2022-11-11T05:30:24;100930.53;;;4.73;82.39
33554;BME280;19885;42.208;24.952;2022-11-11T05:32:50;101025.09;;;4.71;83.94
33554;BME280;19885;42.208;24.952;2022-11-11T05:35:16;101034.81;;;5.12;82.72
33554;BME280;19885;42.208;24.952;2022-11-11T05:37:44;101028.41;;;5.41;83.26
33554;BME280;19885;42.208;24.952;2022-11-11T05:40:29;101026.19;;;5.48;83.01
33554;BME280;19885;42.208;24.952;2022-11-11T05:42:55;101051.09;;;5.65;82.81
33554;BME280;19885;42.208;24.952;2022-11-11T05:45:20;101030.75;;;5.73;83.27
33554;BME280;19885;42.208;24.952;2022-11-11T05:47:46;101053.38;;;5.96;81.99
33554;BME280;19885;42.208;24.952;2022-11-11T05:50:11;101060.75;;;6.06;81.96
33554;BME280;19885;42.208;24.952;2022-11-11T05:52:37;101042.69;;;6.08;82.07
33554;BME280;19885;42.208;24.952;2022-11-11T05:55:02;101053.28;;;6.33;81.74
33554;BME280;19885;42.208;24.952;2022-11-11T05:57:28;101050.69;;;6.33;81.95
33554;BME280;19885;42.208;24.952;2022-11-11T05:59:53;101043.69;;;6.51;81.19
33554;BME280;19885;42.208;24.952;2022-11-11T06:02:19;101015.91;;;6.47;80.98
33554;BME280;19885;42.208;24.952;2022-11-11T06:04:45;101050.72;;;6.74;81.25
33554;BME280;19885;42.208;24.952;2022-11-11T06:07:10;101068.38;;;6.84;81.88
33554;BME280;19885;42.208;24.952;2022-11-11T06:09:36;101067.09;;;6.95;81.62
33554;BME280;19885;42.208;24.952;2022-11-11T06:12:01;101058.69;;;7.01;81.13
33554;BME280;19885;42.208;24.952;2022-11-11T06:14:27;101060.63;;;7.06;81.31
33554;BME280;19885;42.208;24.952;2022-11-11T06:16:52;101062.59;;;7.12;82.99
33554;BME280;19885;42.208;24.952;2022-11-11T06:19:18;101061.50;;;7.28;82.10
33554;BME280;19885;42.208;24.952;2022-11-11T06:21:43;101050.59;;;7.36;81.63
33554;BME280;19885;42.208;24.952;2022-11-11T06:24:25;101083.91;;;7.70;81.69
33554;BME280;19885;42.208;24.952;2022-11-11T06:26:51;101050.88;;;7.66;81.28
33554;BME280;19885;42.208;24.952;2022-11-11T06:29:16;101053.88;;;7.76;80.39
33554;BME280;19885;42.208;24.952;2022-11-11T06:31:42;101084.38;;;8.06;81.23
33554;BME280;19885;42.208;24.952;2022-11-11T06:34:07;101082.28;;;8.19;80.65
33554;BME280;19885;42.208;24.952;2022-11-11T06:36:32;101052.97;;;8.23;80.83
33554;BME280;19885;42.208;24.952;2022-11-11T06:38:58;101075.44;;;8.45;79.74
33554;BME280;19885;42.208;24.952;2022-11-11T06:41:24;100993.69;;;8.10;79.89
33554;BME280;19885;42.208;24.952;2022-11-11T06:43:50;101088.94;;;8.85;79.32
33554;BME280;19885;42.208;24.952;2022-11-11T06:46:20;101094.44;;;9.21;78.61
33554;BME280;19885;42.208;24.952;2022-11-11T06:48:46;101090.53;;;9.63;77.41
33554;BME280;19885;42.208;24.952;2022-11-11T06:51:12;101076.25;;;10.08;75.91
33554;BME280;19885;42.208;24.952;2022-11-11T06:53:41;101094.72;;;10.79;74.90
33554;BME280;19885;42.208;24.952;2022-11-11T06:56:07;101063.94;;;11.35;71.10
33554;BME280;19885;42.208;24.952;2022-11-11T06:58:32;101070.06;;;11.75;69.88
33554;BME280;19885;42.208;24.952;2022-11-11T07:00:58;101089.19;;;12.15;69.52
33554;BME280;19885;42.208;24.952;2022-11-11T07:03:23;101021.75;;;12.41;67.73
33554;BME280;19885;42.208;24.952;2022-11-11T07:05:49;101023.38;;;12.85;66.18
33554;BME280;19885;42.208;24.952;2022-11-11T07:08:17;101080.41;;;13.60;64.63
33554;BME280;19885;42.208;24.952;2022-11-11T07:10:45;101063.31;;;13.89;64.54
33554;BME280;19885;42.208;24.952;2022-11-11T07:13:11;101058.72;;;14.42;62.83
33554;BME280;19885;42.208;24.952;2022-11-11T07:15:37;101069.59;;;14.80;62.16
33554;BME280;19885;42.208;24.952;2022-11-11T07:18:03;101053.06;;;14.90;63.08
33554;BME280;19885;42.208;24.952;2022-11-11T07:20:29;101059.34;;;15.12;63.25
33554;BME280;19885;42.208;24.952;2022-11-11T07:22:55;101072.84;;;14.55;63.25
33554;BME280;19885;42.208;24.952;2022-11-11T07:25:22;101051.22;;;14.81;63.25
33554;BME280;19885;42.208;24.952;2022-11-11T07:27:47;101062.06;;;15.24;61.46
33554;BME280;19885;42.208;24.952;2022-11-11T07:30:13;101006.47;;;16.08;60.04
33554;BME280;19885;42.208;24.952;2022-11-11T07:32:46;101057.50;;;17.09;57.60
33554;BME280;19885;42.208;24.952;2022-11-11T07:35:12;101016.16;;;16.39;58.41
33554;BME280;19885;42.208;24.952;2022-11-11T07:37:38;101053.75;;;15.99;61.64
33554;BME280;19885;42.208;24.952;2022-11-11T07:40:04;101019.59;;;16.05;60.10
33554;BME280;19885;42.208;24.952;2022-11-11T07:42:30;101072.38;;;16.62;60.22
33554;BME280;19885;42.208;24.952;2022-11-11T07:44:55;101084.66;;;16.72;59.45
33554;BME280;19885;42.208;24.952;2022-11-11T07:47:20;101089.97;;;16.84;58.38
33554;BME280;19885;42.208;24.952;2022-11-11T07:49:46;101089.06;;;16.84;58.75
33554;BME280;19885;42.208;24.952;2022-11-11T07:52:11;101083.75;;;16.52;58.65
33554;BME280;19885;42.208;24.952;2022-11-11T07:54:37;101073.16;;;16.35;60.00
33554;BME280;19885;42.208;24.952;2022-11-11T07:57:02;101087.22;;;16.40;59.76
33554;BME280;19885;42.208;24.952;2022-11-11T07:59:28;101088.09;;;16.44;59.55
33554;BME280;19885;42.208;24.952;2022-11-11T08:01:53;101069.69;;;16.46;59.34
33554;BME280;19885;42.208;24.952;2022-11-11T08:04:18;101074.06;;;16.39;59.50
33554;BME280;19885;42.208;24.952;2022-11-11T08:06:44;101055.59;;;16.31;60.61
33554;BME280;19885;42.208;24.952;2022-11-11T08:09:09;101072.28;;;16.36;60.71
33554;BME280;19885;42.208;24.952;2022-11-11T08:11:34;101069.63;;;16.29;60.53
33554;BME280;19885;42.208;24.952;2022-11-11T08:14:18;101023.94;;;15.98;60.19
33554;BME280;19885;42.208;24.952;2022-11-11T08:16:44;101077.56;;;16.35;61.25
33554;BME280;19885;42.208;24.952;2022-11-11T08:19:09;101077.53;;;16.29;60.37
33554;BME280;19885;42.208;24.952;2022-11-11T08:21:38;101070.47;;;16.16;60.84
33554;BME280;19885;42.208;24.952;2022-11-11T08:24:03;101067.84;;;16.16;61.17
33554;BME280;19885;42.208;24.952;2022-11-11T08:26:29;101058.19;;;16.12;61.35
33554;BME280;19885;42.208;24.952;2022-11-11T08:28:55;101070.47;;;16.16;62.58
33554;BME280;19885;42.208;24.952;2022-11-11T08:31:20;101069.59;;;16.08;61.82
33554;BME280;19885;42.208;24.952;2022-11-11T08:33:46;101056.44;;;16.14;62.94
33554;BME280;19885;42.208;24.952;2022-11-11T08:36:11;101078.44;;;16.43;62.14
33554;BME280;19885;42.208;24.952;2022-11-11T08:38:37;101075.78;;;16.40;62.58
33554;BME280;19885;42.208;24.952;2022-11-11T08:41:05;101083.69;;;16.28;63.06
33554;BME280;19885;42.208;24.952;2022-11-11T08:43:31;101082.78;;;16.23;62.65
33554;BME280;19885;42.208;24.952;2022-11-11T08:46:00;101043.22;;;15.91;61.75
33554;BME280;19885;42.208;24.952;2022-11-11T08:48:29;101080.94;;;16.01;62.00
33554;BME280;19885;42.208;24.952;2022-11-11T08:50:55;101095.00;;;16.09;62.40
33554;BME280;19885;42.208;24.952;2022-11-11T08:53:21;101091.47;;;16.05;61.84
33554;BME280;19885;42.208;24.952;2022-11-11T08:55:46;101041.41;;;15.80;62.16
33554;BME280;19885;42.208;24.952;2022-11-11T08:58:12;101082.72;;;16.11;62.20
33554;BME280;19885;42.208;24.952;2022-11-11T09:00:38;101077.50;;;16.17;61.36
33554;BME280;19885;42.208;24.952;2022-11-11T09:03:06;101082.75;;;16.17;61.99
33554;BME280;19885;42.208;24.952;2022-11-11T09:05:32;101090.69;;;16.26;61.81
33554;BME280;19885;42.208;24.952;2022-11-11T09:08:02;101081.91;;;16.25;62.25
33554;BME280;19885;42.208;24.952;2022-11-11T09:10:30;101035.34;;;16.02;62.82
33554;BME280;19885;42.208;24.952;2022-11-11T09:12:56;101079.28;;;16.30;63.30
33554;BME280;19885;42.208;24.952;2022-11-11T09:15:22;101080.16;;;16.33;63.94
33554;BME280;19885;42.208;24.952;2022-11-11T09:17:48;101081.06;;;16.37;64.29
33554;BME280;19885;42.208;24.952;2022-11-11T09:20:14;101057.34;;;16.20;63.75
33554;BME280;19885;42.208;24.952;2022-11-11T09:22:43;101082.81;;;16.35;63.46
33554;BME280;19885;42.208;24.952;2022-11-11T09:25:09;101074.91;;;16.33;63.48
33554;BME280;19885;42.208;24.952;2022-11-11T09:27:34;101078.41;;;16.34;64.27
33554;BME280;19885;42.208;24.952;2022-11-11T09:29:59;101094.22;;;16.37;64.03
33554;BME280;19885;42.208;24.952;2022-11-11T09:32:27;101056.47;;;16.23;63.60
33554;BME280;19885;42.208;24.952;2022-11-11T09:34:52;101087.22;;;16.40;63.75
33554;BME280;19885;42.208;24.952;2022-11-11T09:37:20;101098.69;;;16.53;63.94
33554;BME280;19885;42.208;24.952;2022-11-11T09:39:45;101093.44;;;16.59;63.08
33554;BME280;19885;42.208;24.952;2022-11-11T09:42:32;101089.94;;;16.56;61.48
33554;BME280;19885;42.208;24.952;2022-11-11T09:45:22;101085.53;;;16.53;61.43
33554;BME280;19885;42.208;24.952;2022-11-11T09:50:36;101082.84;;;16.39;62.67
33554;BME280;19885;42.208;24.952;2022-11-11T09:56:12;101073.09;;;16.22;63.05
33554;BME280;19885;42.208;24.952;2022-11-11T09:58:45;101061.72;;;16.23;63.13
33554;BME280;19885;42.208;24.952;2022-11-11T10:01:15;101077.53;;;16.21;63.66
33554;BME280;19885;42.208;24.952;2022-11-11T10:03:46;101030.91;;;15.83;62.88
33554;BME280;19885;42.208;24.952;2022-11-11T10:06:22;101074.81;;;16.06;63.78
33554;BME280;19885;42.208;24.952;2022-11-11T10:08:57;101078.25;;;15.95;64.32
33554;BME280;19885;42.208;24.952;2022-11-11T10:14:03;101077.31;;;15.72;68.02
33554;BME280;19885;42.208;24.952;2022-11-11T10:19:52;101082.38;;;15.47;71.25
33554;BME280;19885;42.208;24.952;2022-11-11T10:22:37;101075.28;;;15.34;73.24
33554;BME280;19885;42.208;24.952;2022-11-11T10:25:07;101082.22;;;15.26;74.55
33554;BME280;19885;42.208;24.952;2022-11-11T10:27:33;101089.13;;;15.15;75.42
33554;BME280;19885;42.208;24.952;2022-11-11T10:30:00;101086.47;;;15.11;75.78
33554;BME280;19885;42.208;24.952;2022-11-11T10:32:33;101082.06;;;15.05;76.54
33554;BME280;19885;42.208;24.952;2022-11-11T10:35:13;101073.28;;;15.03;77.54
33554;BME280;19885;42.208;24.952;2022-11-11T10:37:41;101075.88;;;15.00;77.45
33554;BME280;19885;42.208;24.952;2022-11-11T10:40:43;101090.75;;;14.98;77.28
33554;BME280;19885;42.208;24.952;2022-11-11T10:43:20;101083.72;;;14.94;77.94
33554;BME280;19885;42.208;24.952;2022-11-11T10:46:05;101095.03;;;14.88;78.07
33554;BME280;19885;42.208;24.952;2022-11-11T10:51:24;101087.06;;;14.78;79.45
33554;BME280;19885;42.208;24.952;2022-11-11T10:54:18;101081.78;;;14.73;80.25
33554;BME280;19885;42.208;24.952;2022-11-11T10:56:56;101089.59;;;14.69;81.19
33554;BME280;19885;42.208;24.952;2022-11-11T10:59:40;101089.50;;;14.58;81.87
33554;BME280;19885;42.208;24.952;2022-11-11T11:02:25;101091.28;;;14.64;82.47
33554;BME280;19885;42.208;24.952;2022-11-11T11:05:15;101090.50;;;14.69;82.87
33554;BME280;19885;42.208;24.952;2022-11-11T11:07:48;101080.84;;;14.67;83.34
33554;BME280;19885;42.208;24.952;2022-11-11T11:10:18;101064.22;;;14.65;83.73
33554;BME280;19885;42.208;24.952;2022-11-11T11:15:42;101088.03;;;14.87;84.42
33554;BME280;19885;42.208;24.952;2022-11-11T11:18:15;101080.16;;;14.90;84.40
33554;BME280;19885;42.208;24.952;2022-11-11T11:21:06;101072.34;;;14.93;84.54
33554;BME280;19885;42.208;24.952;2022-11-11T11:23:38;101085.56;;;15.06;84.55
33554;BME280;19885;42.208;24.952;2022-11-11T11:26:04;101081.22;;;15.09;84.51
33554;BME280;19885;42.208;24.952;2022-11-11T11:28:31;101071.63;;;15.14;84.21
33554;BME280;19885;42.208;24.952;2022-11-11T11:31:02;101079.56;;;15.25;83.70
33554;BME280;19885;42.208;24.952;2022-11-11T11:33:49;101069.97;;;15.30;83.48
33554;BME280;19885;42.208;24.952;2022-11-11T11:36:16;101068.31;;;15.39;83.17
33554;BME280;19885;42.208;24.952;2022-11-11T11:38:44;101034.03;;;15.23;83.03
33554;BME280;19885;42.208;24.952;2022-11-11T11:41:15;101055.16;;;15.39;83.04
33554;BME280;19885;42.208;24.952;2022-11-11T11:43:43;101075.44;;;15.55;82.81
33554;BME280;19885;42.208;24.952;2022-11-11T11:46:18;101078.06;;;15.57;82.79
33554;BME280;19885;42.208;24.952;2022-11-11T11:56:55;101065.94;;;15.80;80.09
33554;BME280;19885;42.208;24.952;2022-11-11T12:08:09;101062.41;;;15.77;77.28
33554;BME280;19885;42.208;24.952;2022-11-11T12:21:27;101063.34;;;15.85;77.42
33554;BME280;19885;42.208;24.952;2022-11-11T12:26:50;101059.84;;;15.89;76.70
33554;BME280;19885;42.208;24.952;2022-11-11T12:35:14;101054.59;;;15.95;76.54
33554;BME280;19885;42.208;24.952;2022-11-11T12:43:44;101054.59;;;15.95;77.50
33554;BME280;19885;42.208;24.952;2022-11-11T13:05:10;101055.50;;;15.98;78.80
33554;BME280;19885;42.208;24.952;2022-11-11T13:08:04;101061.63;;;15.96;77.82
33554;BME280;19885;42.208;24.952;2022-11-11T13:10:52;101038.75;;;15.74;79.88
33554;BME280;19885;42.208;24.952;2022-11-11T13:15:55;101051.88;;;15.72;78.05
33554;BME280;19885;42.208;24.952;2022-11-11T13:18:49;101054.41;;;15.58;78.75
33554;BME280;19885;42.208;24.952;2022-11-11T13:21:22;101042.22;;;15.66;78.20
33554;BME280;19885;42.208;24.952;2022-11-11T13:23:49;101033.50;;;15.77;77.99
33554;BME280;19885;42.208;24.952;2022-11-11T13:26:28;101023.84;;;15.73;76.74
33554;BME280;19885;42.208;24.952;2022-11-11T13:32:03;101053.75;;;15.96;76.33
33554;BME280;19885;42.208;24.952;2022-11-11T13:34:31;101049.41;;;16.05;75.93
33554;BME280;19885;42.208;24.952;2022-11-11T13:37:03;101063.47;;;16.15;75.24
33554;BME280;19885;42.208;24.952;2022-11-11T13:39:34;101055.56;;;16.16;74.81
33554;BME280;19885;42.208;24.952;2022-11-11T13:42:01;101005.47;;;15.76;75.23
33554;BME280;19885;42.208;24.952;2022-11-11T13:44:33;101044.16;;;16.16;74.74
33554;BME280;19885;42.208;24.952;2022-11-11T13:47:24;101062.63;;;16.29;74.86
33554;BME280;19885;42.208;24.952;2022-11-11T13:49:57;101061.75;;;16.32;73.80
33554;BME280;19885;42.208;24.952;2022-11-11T13:52:27;101050.34;;;16.27;73.74
33554;BME280;19885;42.208;24.952;2022-11-11T13:54:59;101004.66;;;15.92;73.94
33554;BME280;19885;42.208;24.952;2022-11-11T13:57:27;101014.34;;;16.05;74.46
33554;BME280;19885;42.208;24.952;2022-11-11T14:00:02;101069.63;;;16.33;73.64
33554;BME280;19885;42.208;24.952;2022-11-11T14:02:31;101052.94;;;16.18;72.73
33554;BME280;19885;42.208;24.952;2022-11-11T14:18:04;101076.50;;;15.88;71.21
33554;BME280;19885;42.208;24.952;2022-11-11T14:20:39;101034.28;;;15.59;71.94
33554;BME280;19885;42.208;24.952;2022-11-11T14:25:47;101072.00;;;15.65;70.80
33554;BME280;19885;42.208;24.952;2022-11-11T14:30:52;101069.31;;;15.56;70.16
33554;BME280;19885;42.208;24.952;2022-11-11T14:49:49;101092.00;;;15.45;71.40
33554;BME280;19885;42.208;24.952;2022-11-11T14:52:31;101094.66;;;15.48;72.08
33554;BME280;19885;42.208;24.952;2022-11-11T14:55:03;101084.94;;;15.41;72.81
33554;BME280;19885;42.208;24.952;2022-11-11T14:57:45;101092.84;;;15.41;73.63
33554;BME280;19885;42.208;24.952;2022-11-11T15:00:21;101108.66;;;15.44;74.04
33554;BME280;19885;42.208;24.952;2022-11-11T15:02:51;101105.97;;;15.40;74.45
33554;BME280;19885;42.208;24.952;2022-11-11T15:05:24;101112.00;;;15.28;75.24
33554;BME280;19885;42.208;24.952;2022-11-11T15:08:22;101118.16;;;15.32;75.99
33554;BME280;19885;42.208;24.952;2022-11-11T15:11:14;101137.19;;;15.05;78.76